Time;durP1;ratioP1;P1;durP2;ratioP2;P2;SDS_P1;SDS_P2;PMS_P1;PMS_P2;Temp;Humidity;BMP_temperature;BMP_pressure;BME280_temperature;BME280_humidity;BME280_pressure;Samples;Min_cycle;Max_cycle;Signal;HPM_P1;HPM_P2
2022/01/17 00:00:59;;;;;;;;;;;;;;;1.03;100.00;98523.77;1627974;88;23362;-84
2022/01/17 00:03:26;;;;;;;;;;;;;;;1.05;100.00;98527.12;1629823;88;26093;-84
2022/01/17 00:05:52;;;;;;;;;;;;;;;1.06;100.00;98524.10;1629484;88;24561;-84
2022/01/17 00:08:19;;;;;;;;;;;;;;;1.05;100.00;98512.95;1629902;88;20256;-84
2022/01/17 00:10:46;;;;;;;;;;;;;;;1.09;100.00;98510.67;1629705;86;24762;-84
2022/01/17 00:13:21;;;;;;;;;;;;;;;1.13;100.00;98505.84;1618114;87;22097;-84
2022/01/17 00:15:47;;;;;;;;;;;;;;;1.14;100.00;98504.95;1636466;86;26219;-84
2022/01/17 00:20:47;;;;;;;;;;;;;;;1.20;100.00;98498.30;1636158;86;20461;-84
2022/01/17 00:23:14;;;;;;;;;;;;;;;1.22;100.00;98481.50;1635536;86;24755;-84
2022/01/17 00:25:40;;;;;;;;;;;;;;;1.25;100.00;98492.55;1639286;86;22041;-84
2022/01/17 00:28:07;;;;;;;;;;;;;;;1.27;100.00;98483.48;1636014;87;27015;-84
2022/01/17 00:30:35;;;;;;;;;;;;;;;1.29;100.00;98474.42;1621444;85;24523;-85
2022/01/17 00:33:01;;;;;;;;;;;;;;;1.30;100.00;98492.87;1597695;88;20234;-85
2022/01/17 00:35:27;;;;;;;;;;;;;;;1.29;100.00;98495.05;1621860;87;24830;-85
2022/01/17 00:37:53;;;;;;;;;;;;;;;1.31;100.00;98494.56;1590520;88;21930;-84
2022/01/17 00:40:20;;;;;;;;;;;;;;;1.31;100.00;98490.22;1624106;86;26067;-84
2022/01/17 00:42:46;;;;;;;;;;;;;;;1.32;100.00;98492.36;1626884;87;24583;-84
2022/01/17 00:45:13;;;;;;;;;;;;;;;1.33;100.00;98494.05;1625978;86;20251;-84
2022/01/17 00:47:40;;;;;;;;;;;;;;;1.34;100.00;98482.85;1626010;87;24769;-84
2022/01/17 00:50:09;;;;;;;;;;;;;;;1.34;100.00;98482.85;1624763;87;22068;-85
2022/01/17 00:52:36;;;;;;;;;;;;;;;1.33;100.00;98478.14;1623284;87;25921;-85
2022/01/17 00:55:03;;;;;;;;;;;;;;;1.36;100.00;98474.19;1628794;87;24480;-85
2022/01/17 00:57:29;;;;;;;;;;;;;;;1.36;100.00;98469.48;1621788;87;20323;-85
2022/01/17 00:59:55;;;;;;;;;;;;;;;1.37;100.00;98465.53;1622635;87;24755;-85
2022/01/17 01:02:21;;;;;;;;;;;;;;;1.38;100.00;98459.94;1622828;87;22001;-85
2022/01/17 01:04:49;;;;;;;;;;;;;;;1.39;100.00;98459.89;1622933;87;21472;-85
2022/01/17 01:07:15;;;;;;;;;;;;;;;1.41;100.00;98465.02;1618755;87;24506;-85
2022/01/17 01:10:02;;;;;;;;;;;;;;;1.41;100.00;98455.55;1621617;87;20230;-85
2022/01/17 01:12:18;;;;;;;;;;;;;;;1.42;100.00;98453.34;1624478;87;24831;-85
2022/01/17 01:14:46;;;;;;;;;;;;;;;1.45;100.00;98452.41;1605098;87;22130;-85
2022/01/17 01:17:30;;;;;;;;;;;;;;;1.47;100.00;98442.90;1601682;89;25993;-85
2022/01/17 01:19:42;;;;;;;;;;;;;;;1.46;100.00;98447.20;1599609;89;25175;-85
2022/01/17 01:30:11;;;;;;;;;;;;;;;1.54;100.00;98427.59;1605845;89;26060;-86
2022/01/17 01:32:44;;;;;;;;;;;;;;;1.56;100.00;98420.22;1601484;89;25402;-86
2022/01/17 01:35:09;;;;;;;;;;;;;;;1.59;100.00;98423.13;1595319;89;20238;-85
2022/01/17 01:37:32;;;;;;;;;;;;;;;1.59;100.00;98417.52;1602869;89;24842;-86
2022/01/17 01:40:01;;;;;;;;;;;;;;;1.60;100.00;98424.37;1604235;89;22014;-86
2022/01/17 01:42:29;;;;;;;;;;;;;;;1.61;100.00;98417.47;1604678;89;25977;-86
2022/01/17 01:44:55;;;;;;;;;;;;;;;1.62;100.00;98407.56;1603094;89;24573;-85
2022/01/17 01:47:27;;;;;;;;;;;;;;;1.66;100.00;98409.13;1604095;89;20263;-85
2022/01/17 01:49:56;;;;;;;;;;;;;;;1.70;100.00;98401.67;1605067;89;25507;-85
2022/01/17 01:52:22;;;;;;;;;;;;;;;1.74;100.00;98404.56;1604913;89;22058;-85
2022/01/17 01:54:51;;;;;;;;;;;;;;;1.77;100.00;98403.15;1602018;89;26683;-85
2022/01/17 01:57:17;;;;;;;;;;;;;;;1.80;100.00;98388.84;1598068;89;24510;-86
2022/01/17 01:59:43;;;;;;;;;;;;;;;1.83;100.00;98388.75;1603764;89;20289;-85
2022/01/17 02:02:10;;;;;;;;;;;;;;;1.85;100.00;98389.55;1608663;89;24632;-85
2022/01/17 02:04:36;;;;;;;;;;;;;;;1.86;100.00;98381.33;1598967;89;22035;-86
2022/01/17 02:07:02;;;;;;;;;;;;;;;1.86;100.00;98362.82;1601907;88;25995;-86
2022/01/17 02:09:28;;;;;;;;;;;;;;;1.87;100.00;98373.54;1601977;89;24427;-84
2022/01/17 02:11:54;;;;;;;;;;;;;;;1.88;100.00;98362.77;1601475;89;20234;-84
2022/01/17 02:14:27;;;;;;;;;;;;;;;1.89;100.00;98366.59;1622471;86;24878;-85
2022/01/17 02:16:53;;;;;;;;;;;;;;;1.91;100.00;98361.39;1641984;86;22004;-84
2022/01/17 02:19:21;;;;;;;;;;;;;;;1.91;100.00;98366.55;1644062;86;21196;-85
2022/01/17 02:21:50;;;;;;;;;;;;;;;1.91;100.00;98363.49;1643623;86;24620;-85
2022/01/17 02:24:18;;;;;;;;;;;;;;;1.94;100.00;98349.66;1645718;86;20236;-84
2022/01/17 02:26:45;;;;;;;;;;;;;;;1.94;100.00;98338.89;1640213;86;25559;-85
2022/01/17 02:29:11;;;;;;;;;;;;;;;1.93;100.00;98330.75;1606086;88;22063;-85
2022/01/17 02:31:42;;;;;;;;;;;;;;;1.93;100.00;98340.22;1598865;88;21209;-85
2022/01/17 02:34:08;;;;;;;;;;;;;;;1.94;100.00;98336.31;1638363;86;24448;-85
2022/01/17 02:36:34;;;;;;;;;;;;;;;1.95;100.00;98319.09;1634936;86;20317;-85
2022/01/17 02:39:03;;;;;;;;;;;;;;;1.96;100.00;98325.94;1643985;86;25514;-85
2022/01/17 02:41:29;;;;;;;;;;;;;;;1.96;100.00;98311.30;1641508;87;22009;-85
2022/01/17 02:43:57;;;;;;;;;;;;;;;1.97;100.00;98300.50;1632275;88;26054;-85
2022/01/17 02:46:25;;;;;;;;;;;;;;;1.97;100.00;98270.82;1639374;86;24544;-85
2022/01/17 02:48:52;;;;;;;;;;;;;;;1.98;100.00;98272.06;1611852;88;20235;-85
2022/01/17 02:51:18;;;;;;;;;;;;;;;1.97;100.00;98287.59;1609601;88;24743;-85
2022/01/17 02:53:44;;;;;;;;;;;;;;;1.98;100.00;98270.77;1626476;88;22150;-85
2022/01/17 02:56:11;;;;;;;;;;;;;;;2.03;100.00;98273.17;1626943;88;25966;-85
2022/01/17 02:58:38;;;;;;;;;;;;;;;2.04;100.00;98269.70;1625497;88;24536;-85
2022/01/17 03:01:06;;;;;;;;;;;;;;;2.06;100.00;98270.49;1628125;88;20260;-85
2022/01/17 03:03:32;;;;;;;;;;;;;;;2.08;100.00;98260.93;1631218;86;24821;-85
2022/01/17 03:05:58;;;;;;;;;;;;;;;2.10;100.00;98253.53;1630257;86;20280;-85
2022/01/17 03:08:25;;;;;;;;;;;;;;;2.13;100.00;98270.63;1640220;86;26020;-85
2022/01/17 03:10:53;;;;;;;;;;;;;;;2.15;100.00;98280.45;1639948;87;24406;-85
2022/01/17 03:13:20;;;;;;;;;;;;;;;2.17;100.00;98279.95;1637240;86;20511;-85
2022/01/17 03:15:53;;;;;;;;;;;;;;;2.19;100.00;98285.03;1619933;86;24830;-85
2022/01/17 03:18:16;;;;;;;;;;;;;;;2.21;100.00;98281.95;1625919;87;22829;-84
2022/01/17 03:20:42;;;;;;;;;;;;;;;2.23;100.00;98288.75;1624880;87;26077;-84
2022/01/17 03:23:09;;;;;;;;;;;;;;;2.25;100.00;98280.48;1592013;89;24397;-84
2022/01/17 03:25:35;;;;;;;;;;;;;;;2.27;100.00;98271.39;1595116;89;20486;-84
2022/01/17 03:28:01;;;;;;;;;;;;;;;2.29;100.00;98287.68;1599263;88;24840;-84
2022/01/17 03:30:33;;;;;;;;;;;;;;;2.31;100.00;98291.02;1621022;85;22698;-84
2022/01/17 03:32:58;;;;;;;;;;;;;;;2.32;100.00;98277.22;1617433;86;26009;-84
2022/01/17 03:35:24;;;;;;;;;;;;;;;2.33;100.00;98281.48;1621098;86;24436;-84
2022/01/17 03:37:56;;;;;;;;;;;;;;;2.35;100.00;98279.66;1621827;86;20268;-84
2022/01/17 03:40:22;;;;;;;;;;;;;;;2.34;100.00;98277.56;1637116;86;24830;-84
2022/01/17 03:42:48;;;;;;;;;;;;;;;2.37;100.00;98270.13;1634501;86;22031;-84
2022/01/17 03:45:14;;;;;;;;;;;;;;;2.37;100.00;98273.55;1639186;86;25987;-84
2022/01/17 03:47:42;;;;;;;;;;;;;;;2.38;100.00;98270.08;1634753;86;24491;-85
2022/01/17 03:50:10;;;;;;;;;;;;;;;2.36;100.00;98266.70;1640568;86;20387;-85
2022/01/17 03:52:37;;;;;;;;;;;;;;;2.36;100.00;98274.45;1620657;87;24860;-85
2022/01/17 03:55:03;;;;;;;;;;;;;;;2.37;100.00;98281.30;1595160;88;22096;-85
2022/01/17 03:57:29;;;;;;;;;;;;;;;2.39;100.00;98263.17;1598095;88;26053;-85
2022/01/17 03:59:57;;;;;;;;;;;;;;;2.38;100.00;98270.08;1641269;86;24430;-84
2022/01/17 04:02:23;;;;;;;;;;;;;;;2.40;100.00;98274.70;1628665;85;20304;-84
2022/01/17 04:04:49;;;;;;;;;;;;;;;2.40;100.00;98273.41;1593316;88;24762;-85
2022/01/17 04:07:15;;;;;;;;;;;;;;;2.41;100.00;98252.31;1595425;88;21935;-84
2022/01/17 04:09:41;;;;;;;;;;;;;;;2.40;100.00;98263.09;1596612;88;25935;-85
2022/01/17 04:12:08;;;;;;;;;;;;;;;2.41;100.00;98242.83;1591831;89;24520;-84
2022/01/17 04:14:36;;;;;;;;;;;;;;;2.40;100.00;98240.33;1601805;87;20216;-85
2022/01/17 04:17:02;;;;;;;;;;;;;;;2.41;100.00;98241.98;1604198;86;24550;-84
2022/01/17 04:19:28;;;;;;;;;;;;;;;2.41;100.00;98248.44;1593202;88;21986;-84
2022/01/17 04:21:55;;;;;;;;;;;;;;;2.42;100.00;98244.96;1622600;85;26128;-84
2022/01/17 04:24:21;;;;;;;;;;;;;;;2.42;100.00;98244.52;1622796;87;25202;-84
2022/01/17 04:26:47;;;;;;;;;;;;;;;2.44;100.00;98254.79;1625419;88;20250;-84
2022/01/17 04:29:13;;;;;;;;;;;;;;;2.45;100.00;98252.59;1620610;88;24757;-85
2022/01/17 04:31:39;;;;;;;;;;;;;;;2.46;100.00;98251.22;1620774;87;21971;-85
2022/01/17 04:34:05;;;;;;;;;;;;;;;2.46;100.00;98257.68;1623000;87;27436;-84
2022/01/17 04:36:31;;;;;;;;;;;;;;;2.47;100.00;98261.95;1633522;87;24533;-84
2022/01/17 04:38:57;;;;;;;;;;;;;;;2.47;100.00;98250.78;1623723;87;20230;-85
2022/01/17 04:41:35;;;;;;;;;;;;;;;2.48;100.00;98248.59;1624264;87;24791;-84
2022/01/17 04:46:19;;;;;;;;;;;;;;;2.49;100.00;98269.64;1626426;87;26019;-84
2022/01/17 04:48:45;;;;;;;;;;;;;;;2.48;100.00;98255.89;1624514;87;24638;-84
2022/01/17 04:51:11;;;;;;;;;;;;;;;2.50;100.00;98250.67;1627450;87;20312;-84
2022/01/17 04:53:39;;;;;;;;;;;;;;;2.49;100.00;98236.07;1625077;87;24765;-84
2022/01/17 04:56:05;;;;;;;;;;;;;;;2.50;100.00;98241.18;1621618;87;22748;-84
2022/01/17 04:58:37;;;;;;;;;;;;;;;2.51;100.00;98251.03;1620505;87;26217;-84
2022/01/17 05:01:04;;;;;;;;;;;;;;;2.49;100.00;98236.07;1620941;87;24562;-84
2022/01/17 05:03:29;;;;;;;;;;;;;;;2.50;100.00;98232.59;1626209;87;20643;-84
2022/01/17 05:05:56;;;;;;;;;;;;;;;2.51;100.00;98235.54;1630314;87;24972;-84
2022/01/17 05:08:22;;;;;;;;;;;;;;;2.52;100.00;98229.47;1621451;87;22070;-84
2022/01/17 05:10:53;;;;;;;;;;;;;;;2.52;100.00;98226.89;1620488;87;26011;-85
2022/01/17 05:13:23;;;;;;;;;;;;;;;2.56;100.00;98232.80;1622218;86;24550;-84
2022/01/17 05:16:04;;;;;;;;;;;;;;;2.55;100.00;98217.75;1624339;87;20214;-84
2022/01/17 05:19:48;;;;;;;;;;;;;;;2.55;100.00;98223.36;1618034;87;24751;-84
2022/01/17 05:20:52;;;;;;;;;;;;;;;2.57;100.00;98222.38;1624593;87;22287;-84
2022/01/17 05:23:18;;;;;;;;;;;;;;;2.57;100.00;98215.92;1618348;87;26018;-84
2022/01/17 05:25:44;;;;;;;;;;;;;;;2.57;100.00;98210.75;1620950;87;24466;-85
2022/01/17 05:28:10;;;;;;;;;;;;;;;2.61;100.00;98223.11;1623189;88;20530;-84
2022/01/17 05:30:36;;;;;;;;;;;;;;;2.60;100.00;98200.31;1635423;87;24838;-84
2022/01/17 05:33:02;;;;;;;;;;;;;;;2.59;100.00;98212.83;1636569;86;21971;-84
2022/01/17 05:35:28;;;;;;;;;;;;;;;2.62;100.00;98223.50;1615194;86;25812;-84
2022/01/17 05:37:57;;;;;;;;;;;;;;;2.63;100.00;98213.53;1636146;87;24440;-85
2022/01/17 05:40:23;;;;;;;;;;;;;;;2.64;100.00;98214.77;1620976;87;20225;-85
2022/01/17 05:42:49;;;;;;;;;;;;;;;2.65;100.00;98202.70;1594234;89;24784;-84
2022/01/17 05:45:16;;;;;;;;;;;;;;;2.66;100.00;98194.05;1622144;86;22033;-84
2022/01/17 05:47:43;;;;;;;;;;;;;;;2.67;100.00;98181.08;1623331;85;26022;-85
2022/01/17 05:50:10;;;;;;;;;;;;;;;2.69;100.00;98188.73;1595791;88;24753;-85
2022/01/17 05:52:36;;;;;;;;;;;;;;;2.70;100.00;98190.42;1596957;87;20449;-85
2022/01/17 05:55:03;;;;;;;;;;;;;;;2.71;100.00;98188.23;1625157;87;24710;-84
2022/01/17 05:57:29;;;;;;;;;;;;;;;2.72;100.00;98186.89;1614879;88;21413;-85
2022/01/17 05:59:55;;;;;;;;;;;;;;;2.74;100.00;98166.13;1619118;88;26070;-84
2022/01/17 06:02:21;;;;;;;;;;;;;;;2.74;100.00;98169.55;1621329;87;24399;-84
2022/01/17 06:04:47;;;;;;;;;;;;;;;2.73;100.00;98169.16;1628694;87;20243;-85
2022/01/17 06:07:13;;;;;;;;;;;;;;;2.74;100.00;98172.59;1618728;87;24761;-84
2022/01/17 06:09:39;;;;;;;;;;;;;;;2.77;100.00;98166.86;1625519;87;21935;-84
2022/01/17 06:12:08;;;;;;;;;;;;;;;2.76;100.00;98165.17;1621172;87;26014;-84
2022/01/17 06:14:34;;;;;;;;;;;;;;;2.79;100.00;98162.89;1622011;86;24413;-83
2022/01/17 06:17:01;;;;;;;;;;;;;;;2.80;100.00;98171.87;1622710;87;20373;-84
2022/01/17 06:19:36;;;;;;;;;;;;;;;2.81;100.00;98167.55;1626260;87;24747;-85
2022/01/17 06:22:03;;;;;;;;;;;;;;;2.81;100.00;98176.59;1617170;87;21963;-84
2022/01/17 06:24:33;;;;;;;;;;;;;;;2.80;100.00;98183.51;1612232;87;25663;-84
2022/01/17 06:26:58;;;;;;;;;;;;;;;2.81;100.00;98181.77;1622148;88;24572;-84
2022/01/17 06:29:25;;;;;;;;;;;;;;;2.80;100.00;98165.88;1618697;87;20187;-84
2022/01/17 06:31:51;;;;;;;;;;;;;;;2.80;100.00;98156.83;1612481;87;24772;-84
2022/01/17 06:34:17;;;;;;;;;;;;;;;2.79;100.00;98154.69;1588537;89;21952;-84
2022/01/17 06:36:43;;;;;;;;;;;;;;;2.80;100.00;98146.04;1627774;87;25989;-84
2022/01/17 06:39:11;;;;;;;;;;;;;;;2.82;100.00;98155.03;1610880;87;24620;-84
2022/01/17 06:41:37;;;;;;;;;;;;;;;2.82;100.00;98155.03;1608313;87;20303;-83
2022/01/17 06:44:03;;;;;;;;;;;;;;;2.83;100.00;98161.88;1634099;86;24824;-84
2022/01/17 06:46:30;;;;;;;;;;;;;;;2.83;100.00;98176.09;1633959;86;21983;-84
2022/01/17 06:48:57;;;;;;;;;;;;;;;2.83;100.00;98177.38;1634934;86;25994;-84
2022/01/17 06:51:23;;;;;;;;;;;;;;;2.84;100.00;98157.07;1634209;87;24434;-84
2022/01/17 06:53:51;;;;;;;;;;;;;;;2.84;100.00;98163.53;1635309;86;20488;-84
2022/01/17 06:56:17;;;;;;;;;;;;;;;2.85;100.00;98166.06;1634636;86;24863;-84
2022/01/17 06:58:44;;;;;;;;;;;;;;;2.87;100.00;98141.45;1609719;87;21691;-84
2022/01/17 07:01:11;;;;;;;;;;;;;;;2.86;100.00;98137.19;1634845;86;26150;-84
2022/01/17 07:03:38;;;;;;;;;;;;;;;2.88;100.00;98117.30;1634029;86;24512;-84
2022/01/17 07:06:04;;;;;;;;;;;;;;;2.88;100.00;98091.00;1634450;86;20229;-84
2022/01/17 07:08:30;;;;;;;;;;;;;;;2.90;100.00;98083.16;1636214;86;24895;-84
2022/01/17 07:10:56;;;;;;;;;;;;;;;2.89;100.00;98071.98;1633776;86;22634;-84
2022/01/17 07:13:22;;;;;;;;;;;;;;;2.89;100.00;98077.63;1634270;86;26147;-84
2022/01/17 07:15:48;;;;;;;;;;;;;;;2.90;100.00;98082.70;1633627;86;24439;-84
2022/01/17 07:18:14;;;;;;;;;;;;;;;2.92;100.00;98096.86;1627354;87;20280;-85
2022/01/17 07:20:40;;;;;;;;;;;;;;;2.94;100.00;98120.91;1628523;86;24708;-85
2022/01/17 07:23:09;;;;;;;;;;;;;;;2.95;100.00;98138.91;1627329;87;20261;-85
2022/01/17 07:25:38;;;;;;;;;;;;;;;2.97;100.00;98134.13;1629690;85;26067;-85
2022/01/17 07:28:03;;;;;;;;;;;;;;;2.97;100.00;98139.30;1641377;86;24570;-84
2022/01/17 07:30:30;;;;;;;;;;;;;;;2.98;100.00;98157.78;1621188;87;20250;-84
2022/01/17 07:32:56;;;;;;;;;;;;;;;2.99;100.00;98149.13;1637261;85;24225;-84
2022/01/17 07:35:22;;;;;;;;;;;;;;;2.99;100.00;98182.28;1611464;87;21932;-84
2022/01/17 07:37:51;;;;;;;;;;;;;;;2.98;100.00;98172.84;1623740;86;25978;-84
2022/01/17 07:40:23;;;;;;;;;;;;;;;2.95;100.00;98147.95;1630646;85;24456;-85
2022/01/17 07:42:49;;;;;;;;;;;;;;;2.91;100.00;98093.44;1635442;86;20224;-85
2022/01/17 07:45:18;;;;;;;;;;;;;;;2.89;100.00;98090.55;1636523;86;24578;-85
2022/01/17 07:50:16;;;;;;;;;;;;;;;2.86;100.00;98064.83;1636382;87;26826;-86
2022/01/17 07:52:42;;;;;;;;;;;;;;;2.85;100.00;98066.57;1615452;87;23998;-85
2022/01/17 07:55:09;;;;;;;;;;;;;;;2.83;100.00;98067.56;1641734;85;20286;-85
2022/01/17 07:57:35;;;;;;;;;;;;;;;2.80;100.00;98068.52;1615106;87;24827;-84
2022/01/17 08:00:03;;;;;;;;;;;;;;;2.80;100.00;98071.11;1629450;86;22746;-84
2022/01/17 08:02:29;;;;;;;;;;;;;;;2.80;100.00;98047.02;1619536;87;26016;-84
2022/01/17 08:04:55;;;;;;;;;;;;;;;2.82;100.00;98034.42;1628373;86;24436;-84
2022/01/17 08:07:22;;;;;;;;;;;;;;;2.83;100.00;98029.64;1633954;86;20317;-84
2022/01/17 08:09:48;;;;;;;;;;;;;;;2.86;100.00;98011.85;1620999;87;24792;-84
2022/01/17 08:12:14;;;;;;;;;;;;;;;2.88;100.00;97986.34;1640421;85;22697;-84
2022/01/17 08:14:40;;;;;;;;;;;;;;;2.89;100.00;97962.15;1627777;85;26676;-84
2022/01/17 08:17:09;;;;;;;;;;;;;;;2.90;100.00;97950.91;1625782;86;24460;-84
2022/01/17 08:19:35;;;;;;;;;;;;;;;2.93;100.00;97953.36;1619177;85;20350;-84
2022/01/17 08:22:02;;;;;;;;;;;;;;;2.97;100.00;97925.62;1595785;88;20497;-84
2022/01/17 08:24:30;;;;;;;;;;;;;;;2.98;100.00;97942.80;1593294;88;22004;-84
2022/01/17 08:26:57;;;;;;;;;;;;;;;3.00;100.00;97940.97;1601718;87;26253;-83
2022/01/17 08:29:25;;;;;;;;;;;;;;;3.05;100.00;97958.87;1636170;85;24444;-84
2022/01/17 08:31:55;;;;;;;;;;;;;;;3.08;100.00;97936.73;1604216;87;20340;-84
2022/01/17 08:34:21;;;;;;;;;;;;;;;3.11;100.00;97944.36;1620244;86;24769;-84
2022/01/17 08:36:47;;;;;;;;;;;;;;;3.16;100.00;97957.91;1592298;88;21937;-84
2022/01/17 08:39:14;;;;;;;;;;;;;;;3.19;100.00;97975.84;1592364;87;26065;-84
2022/01/17 08:41:42;;;;;;;;;;;;;;;3.23;100.00;97945.05;1617067;88;24728;-85
2022/01/17 08:44:12;;;;;;;;;;;;;;;3.26;100.00;97926.81;1613726;86;20335;-84
2022/01/17 08:46:39;;;;;;;;;;;;;;;3.29;100.00;97909.84;1589840;88;25810;-85
2022/01/17 08:49:05;;;;;;;;;;;;;;;3.32;100.00;97903.24;1621366;87;22216;-85
2022/01/17 08:51:32;;;;;;;;;;;;;;;3.35;100.00;97886.27;1627373;87;26011;-84
2022/01/17 08:53:58;;;;;;;;;;;;;;;3.38;100.00;97873.20;1623506;87;24298;-84
2022/01/17 08:56:27;;;;;;;;;;;;;;;3.41;100.00;97896.31;1627709;87;20486;-85
2022/01/17 08:58:53;;;;;;;;;;;;;;;3.46;100.00;97888.32;1606776;87;24987;-84
2022/01/17 09:01:19;;;;;;;;;;;;;;;3.49;100.00;97863.61;1629122;87;21978;-84
2022/01/17 09:03:45;;;;;;;;;;;;;;;3.51;100.00;97849.67;1625809;87;25948;-85
2022/01/17 09:06:11;;;;;;;;;;;;;;;3.55;100.00;97859.39;1623736;87;24667;-85
2022/01/17 09:08:37;;;;;;;;;;;;;;;3.58;100.00;97874.78;1623748;87;20337;-85
2022/01/17 09:11:03;;;;;;;;;;;;;;;3.59;100.00;97859.64;1619834;87;24815;-85
2022/01/17 09:13:30;;;;;;;;;;;;;;;3.61;100.00;97831.92;1623277;87;22048;-85
2022/01/17 09:15:56;;;;;;;;;;;;;;;3.63;100.00;97852.93;1612952;87;26111;-85
2022/01/17 09:18:24;;;;;;;;;;;;;;;3.65;100.00;97874.85;1590567;89;24498;-84
2022/01/17 09:20:50;;;;;;;;;;;;;;;3.66;100.00;97858.39;1590620;89;20672;-84
2022/01/17 09:23:17;;;;;;;;;;;;;;;3.68;100.00;97864.33;1590735;90;24984;-84
2022/01/17 09:25:43;;;;;;;;;;;;;;;3.67;100.00;97857.02;1590232;89;22088;-85
2022/01/17 09:28:13;;;;;;;;;;;;;;;3.65;100.00;97865.80;1587642;89;25980;-84
2022/01/17 09:30:37;;;;;;;;;;;;;;;3.63;100.00;97857.27;1584028;89;24596;-84
2022/01/17 09:33:06;;;;;;;;;;;;;;;3.60;100.00;97874.25;1577987;90;20187;-84
2022/01/17 09:35:32;;;;;;;;;;;;;;;3.60;100.00;97853.07;1597567;89;24833;-85
2022/01/17 09:37:59;;;;;;;;;;;;;;;3.61;100.00;97863.80;1584923;90;21874;-84
2022/01/17 09:40:25;;;;;;;;;;;;;;;3.61;100.00;97856.05;1595760;89;26234;-85
2022/01/17 09:42:53;;;;;;;;;;;;;;;3.60;100.00;97852.27;1585232;90;25146;-85
2022/01/17 09:45:25;;;;;;;;;;;;;;;3.59;100.00;97842.82;1582848;89;20226;-85
2022/01/17 09:47:52;;;;;;;;;;;;;;;3.57;100.00;97835.59;1588284;90;24812;-85
2022/01/17 09:50:32;;;;;;;;;;;;;;;3.54;100.00;97836.59;1597952;89;22650;-85
2022/01/17 09:52:52;;;;;;;;;;;;;;;3.54;100.00;97824.95;1596259;88;26003;-84
2022/01/17 09:55:24;;;;;;;;;;;;;;;3.52;100.00;97820.77;1584583;90;24513;-84
2022/01/17 09:57:55;;;;;;;;;;;;;;;3.50;100.00;97810.48;1582370;89;20375;-84
2022/01/17 10:00:25;;;;;;;;;;;;;;;3.50;100.00;97796.71;1598256;89;25002;-84
2022/01/17 10:02:55;;;;;;;;;;;;;;;3.51;100.00;97809.58;1585056;89;22057;-84
2022/01/17 10:05:21;;;;;;;;;;;;;;;3.52;100.00;97790.56;1596905;89;26065;-84
2022/01/17 10:07:51;;;;;;;;;;;;;;;3.54;100.00;97797.80;1584808;89;24430;-84
2022/01/17 10:10:41;;;;;;;;;;;;;;;3.59;100.00;97791.08;1585071;90;20234;-85
2022/01/17 10:13:24;;;;;;;;;;;;;;;3.61;100.00;97778.43;1596678;88;24786;-85
2022/01/17 10:16:07;;;;;;;;;;;;;;;3.64;100.00;97760.63;1597689;90;21980;-85
2022/01/17 10:18:42;;;;;;;;;;;;;;;3.67;100.00;97756.12;1588164;89;26231;-85
2022/01/17 10:21:20;;;;;;;;;;;;;;;3.70;100.00;97759.02;1587323;90;24463;-84
2022/01/17 10:24:16;;;;;;;;;;;;;;;3.74;100.00;97758.77;1586292;88;20241;-85
2022/01/17 10:35:16;;;;;;;;;;;;;;;3.85;100.00;97749.59;1562201;90;24433;-84
2022/01/17 10:37:04;;;;;;;;;;;;;;;3.87;100.00;97739.55;1571294;90;20461;-84
2022/01/17 10:39:30;;;;;;;;;;;;;;;3.89;100.00;97740.28;1559936;91;20775;-84
2022/01/17 10:41:57;;;;;;;;;;;;;;;3.91;100.00;97726.80;1574920;90;21627;-84
2022/01/17 10:44:25;;;;;;;;;;;;;;;3.91;100.00;97700.08;1588181;90;26171;-84
2022/01/17 10:46:51;;;;;;;;;;;;;;;3.92;100.00;97690.95;1584441;88;24558;-84
2022/01/17 10:49:17;;;;;;;;;;;;;;;3.95;100.00;97696.41;1587344;89;20201;-84
2022/01/17 10:51:43;;;;;;;;;;;;;;;3.97;100.00;97685.05;1557985;91;24795;-84
2022/01/17 10:54:17;;;;;;;;;;;;;;;3.99;100.00;97692.72;1562968;90;21984;-84
2022/01/17 10:57:04;;;;;;;;;;;;;;;4.00;100.00;97686.17;1597570;88;26096;-84
2022/01/17 10:59:34;;;;;;;;;;;;;;;3.98;100.00;97674.25;1587096;89;25386;-84
2022/01/17 11:02:00;;;;;;;;;;;;;;;3.93;100.00;97688.70;1560688;91;20550;-84
2022/01/17 11:04:34;;;;;;;;;;;;;;;3.85;100.00;97694.78;1573035;88;24822;-84
2022/01/17 11:07:10;;;;;;;;;;;;;;;3.83;100.00;97703.53;1589565;88;22029;-84
2022/01/17 11:09:43;;;;;;;;;;;;;;;3.77;100.00;97707.29;1586351;89;26036;-84
2022/01/17 11:12:11;;;;;;;;;;;;;;;3.73;100.00;97715.69;1584687;90;24194;-84
2022/01/17 11:14:40;;;;;;;;;;;;;;;3.69;100.00;97712.06;1573555;90;20290;-84
2022/01/17 11:17:14;;;;;;;;;;;;;;;3.62;100.00;97719.31;1598601;87;24788;-85
2022/01/17 11:22:23;;;;;;;;;;;;;;;3.44;100.00;97707.83;1622498;87;26048;-85
2022/01/17 11:24:50;;;;;;;;;;;;;;;3.35;100.00;97717.72;1593060;89;24503;-84
2022/01/17 11:27:19;;;;;;;;;;;;;;;3.31;100.00;97721.39;1590400;90;20186;-84
2022/01/17 11:29:50;;;;;;;;;;;;;;;3.29;100.00;97714.62;1620908;88;24727;-85
2022/01/17 11:32:25;;;;;;;;;;;;;;;3.26;100.00;97694.95;1621027;87;22113;-84
2022/01/17 11:35:06;;;;;;;;;;;;;;;3.24;100.00;97709.69;1621364;87;26141;-84
2022/01/17 11:37:31;;;;;;;;;;;;;;;3.24;100.00;97686.88;1624754;86;24549;-85
2022/01/17 11:39:57;;;;;;;;;;;;;;;3.21;100.00;97681.42;1616983;88;20225;-84
2022/01/17 11:42:44;;;;;;;;;;;;;;;3.19;100.00;97681.11;1589668;89;25513;-84
2022/01/17 11:45:11;;;;;;;;;;;;;;;3.17;100.00;97676.47;1592722;88;22087;-84
2022/01/17 11:47:48;;;;;;;;;;;;;;;3.16;100.00;97680.00;1611495;88;26114;-85
2022/01/17 11:50:33;;;;;;;;;;;;;;;3.18;100.00;97685.91;1622570;88;24613;-85
2022/01/17 11:53:13;;;;;;;;;;;;;;;3.19;100.00;97687.58;1619899;87;20494;-84
2022/01/17 11:55:42;;;;;;;;;;;;;;;3.18;100.00;97701.41;1621849;88;24794;-85
2022/01/17 11:58:29;;;;;;;;;;;;;;;3.17;100.00;97707.03;1623539;87;22083;-85
2022/01/17 12:00:59;;;;;;;;;;;;;;;3.17;100.00;97690.23;1636241;87;26179;-86
2022/01/17 12:03:26;;;;;;;;;;;;;;;3.16;100.00;97709.27;1621387;87;24589;-85
2022/01/17 12:05:54;;;;;;;;;;;;;;;3.16;100.00;97706.69;1635528;86;20226;-85
2022/01/17 12:08:27;;;;;;;;;;;;;;;3.16;100.00;97702.81;1622543;86;25045;-85
2022/01/17 12:10:58;;;;;;;;;;;;;;;3.17;100.00;97709.63;1591423;89;22158;-85
2022/01/17 12:13:35;;;;;;;;;;;;;;;3.18;100.00;97716.92;1599341;88;26052;-84
2022/01/17 12:16:21;;;;;;;;;;;;;;;3.18;100.00;97700.95;1616926;87;24870;-84
2022/01/17 12:18:48;;;;;;;;;;;;;;;3.16;100.00;97696.80;1608491;87;20270;-84
2022/01/17 12:21:18;;;;;;;;;;;;;;;3.17;100.00;97685.06;1610838;87;24926;-84
2022/01/17 12:23:45;;;;;;;;;;;;;;;3.18;100.00;97681.57;1586183;89;21963;-84
2022/01/17 12:26:25;;;;;;;;;;;;;;;3.16;100.00;97679.54;1609997;87;26014;-84
2022/01/17 12:28:51;;;;;;;;;;;;;;;3.16;100.00;97686.00;1614552;87;24458;-84
2022/01/17 12:31:19;;;;;;;;;;;;;;;3.17;100.00;97672.59;1610265;87;20537;-85
2022/01/17 12:33:45;;;;;;;;;;;;;;;3.19;100.00;97684.99;1609586;88;24742;-85
2022/01/17 12:36:28;;;;;;;;;;;;;;;3.19;100.00;97682.41;1618573;88;21975;-84
2022/01/17 12:39:14;;;;;;;;;;;;;;;3.22;100.00;97706.80;1619672;87;26053;-84
2022/01/17 12:41:41;;;;;;;;;;;;;;;3.23;100.00;97701.55;1610731;87;24506;-84
2022/01/17 12:44:18;;;;;;;;;;;;;;;3.24;100.00;97692.89;1632251;87;20564;-84
2022/01/17 12:46:50;;;;;;;;;;;;;;;3.25;100.00;97690.69;1633414;87;25498;-84
2022/01/17 12:49:17;;;;;;;;;;;;;;;3.26;100.00;97665.67;1609678;88;22003;-84
2022/01/17 12:51:44;;;;;;;;;;;;;;;3.30;100.00;97663.28;1587399;89;26578;-84
2022/01/17 12:54:12;;;;;;;;;;;;;;;3.31;100.00;97662.38;1586536;89;24131;-84
2022/01/17 12:56:45;;;;;;;;;;;;;;;3.27;100.00;97650.53;1585599;88;20218;-84
2022/01/17 12:59:12;;;;;;;;;;;;;;;3.36;100.00;97652.63;1611824;87;24394;-84
2022/01/17 13:01:46;;;;;;;;;;;;;;;3.39;100.00;97692.53;1611323;87;22160;-85
2022/01/17 13:04:16;;;;;;;;;;;;;;;3.41;100.00;97729.50;1589554;89;26107;-85
2022/01/17 13:06:43;;;;;;;;;;;;;;;3.45;100.00;97743.09;1611653;86;25455;-85
2022/01/17 13:09:11;;;;;;;;;;;;;;;3.43;100.00;97757.42;1614819;87;20511;-85
2022/01/17 13:11:39;;;;;;;;;;;;;;;3.40;100.00;97792.48;1619580;87;25690;-85
2022/01/17 13:14:05;;;;;;;;;;;;;;;3.36;100.00;97864.67;1602297;88;22090;-85
2022/01/17 13:16:34;;;;;;;;;;;;;;;3.31;100.00;97897.69;1622532;87;26157;-85
2022/01/17 13:18:59;;;;;;;;;;;;;;;3.21;100.00;97903.77;1620135;87;24632;-85